KPGA/PGA METAR and TAF weather

Enter ICAO airport designator
Station Type Date Time Source
KPGA METAR 2019/05/25 14:53 UTC NOAA

KPGA 251453Z AUTO 00000KT 10SM CLR 14/04 A2996 RMK AO2 SLP102 T01440039 53008 TSNO


Station Type Date Time Source
KPGA Decoded METAR 2019/05/25 14:53 UTC NOAA

PAGE MUNICIPAL AIRPORT, AZ, United States (KPGA) 36-56N 111-27W 1307M
May 25, 2019 - 10:53 AM EDT / 2019.05.25 1453 UTC
Wind: Calm:0
Visibility: 10 mile(s):0
Sky conditions: clear
Temperature: 57.9 F (14.4 C)
Dew Point: 39.0 F (3.9 C)
Relative Humidity: 49%
Pressure (altimeter): 29.96 in. Hg (1014 hPa)
Pressure tendency: 0.02 inches (0.8 hPa) higher than three hours ago
ob: KPGA 251453Z AUTO 00000KT 10SM CLR 14/04 A2996 RMK AO2 SLP102 T01440039 53008 TSNO
cycle: 15

Station Type Date Time Source
KPGA TAF 2019/05/25 12:21 UTC NOAA

TAF KPGA 251120Z 2512/2612 VRB05KT P6SM FEW080
FM252100 20010G15KT P6SM SKC
FM260300 20008KT P6SM SKC

Example: see airport list